sensor_id;sensor_type;location;lat;lon;timestamp;P1;durP1;ratioP1;P2;durP2;ratioP2
60076;SDS011;45950;45.208;20.374;2023-02-10T00:01:40;36.80;;;15.83;;
60076;SDS011;45950;45.208;20.374;2023-02-10T00:04:06;33.03;;;14.73;;
60076;SDS011;45950;45.208;20.374;2023-02-10T00:06:33;30.03;;;15.00;;
60076;SDS011;45950;45.208;20.374;2023-02-10T00:09:00;32.07;;;14.10;;
60076;SDS011;45950;45.208;20.374;2023-02-10T00:11:27;33.60;;;14.97;;
60076;SDS011;45950;45.208;20.374;2023-02-10T00:14:07;28.93;;;13.83;;
60076;SDS011;45950;45.208;20.374;2023-02-10T00:16:34;30.50;;;14.30;;
60076;SDS011;45950;45.208;20.374;2023-02-10T00:19:02;28.80;;;14.03;;
60076;SDS011;45950;45.208;20.374;2023-02-10T00:21:28;31.47;;;13.33;;
60076;SDS011;45950;45.208;20.374;2023-02-10T00:24:00;32.67;;;14.50;;
60076;SDS011;45950;45.208;20.374;2023-02-10T00:26:26;35.80;;;16.10;;
60076;SDS011;45950;45.208;20.374;2023-02-10T00:28:52;35.17;;;14.17;;
60076;SDS011;45950;45.208;20.374;2023-02-10T00:31:19;28.47;;;13.60;;
60076;SDS011;45950;45.208;20.374;2023-02-10T00:33:56;31.13;;;13.00;;
60076;SDS011;45950;45.208;20.374;2023-02-10T00:36:24;28.67;;;14.07;;
60076;SDS011;45950;45.208;20.374;2023-02-10T00:38:51;29.20;;;13.63;;
60076;SDS011;45950;45.208;20.374;2023-02-10T00:41:18;34.03;;;15.30;;
60076;SDS011;45950;45.208;20.374;2023-02-10T00:43:45;30.43;;;13.67;;
60076;SDS011;45950;45.208;20.374;2023-02-10T00:46:17;31.07;;;14.23;;
60076;SDS011;45950;45.208;20.374;2023-02-10T00:48:44;33.40;;;15.23;;
60076;SDS011;45950;45.208;20.374;2023-02-10T00:51:11;31.93;;;14.83;;
60076;SDS011;45950;45.208;20.374;2023-02-10T00:56:41;32.40;;;16.37;;
60076;SDS011;45950;45.208;20.374;2023-02-10T00:59:08;26.80;;;13.60;;
60076;SDS011;45950;45.208;20.374;2023-02-10T01:01:35;35.13;;;16.13;;
60076;SDS011;45950;45.208;20.374;2023-02-10T01:04:01;35.13;;;15.67;;
60076;SDS011;45950;45.208;20.374;2023-02-10T01:06:31;38.53;;;16.03;;
60076;SDS011;45950;45.208;20.374;2023-02-10T01:08:58;41.07;;;18.03;;
60076;SDS011;45950;45.208;20.374;2023-02-10T01:11:24;38.10;;;16.33;;
60076;SDS011;45950;45.208;20.374;2023-02-10T01:13:52;32.47;;;15.60;;
60076;SDS011;45950;45.208;20.374;2023-02-10T01:16:19;33.60;;;14.67;;
60076;SDS011;45950;45.208;20.374;2023-02-10T01:21:47;33.33;;;15.13;;
60076;SDS011;45950;45.208;20.374;2023-02-10T01:24:14;28.90;;;14.00;;
60076;SDS011;45950;45.208;20.374;2023-02-10T01:26:44;25.37;;;12.40;;
60076;SDS011;45950;45.208;20.374;2023-02-10T01:29:12;28.43;;;12.30;;
60076;SDS011;45950;45.208;20.374;2023-02-10T01:31:39;30.40;;;14.60;;
60076;SDS011;45950;45.208;20.374;2023-02-10T01:34:06;28.63;;;14.80;;
60076;SDS011;45950;45.208;20.374;2023-02-10T01:36:32;27.57;;;13.50;;
60076;SDS011;45950;45.208;20.374;2023-02-10T01:38:59;28.03;;;13.47;;
60076;SDS011;45950;45.208;20.374;2023-02-10T01:41:25;28.87;;;14.40;;
60076;SDS011;45950;45.208;20.374;2023-02-10T01:43:56;31.50;;;14.40;;
60076;SDS011;45950;45.208;20.374;2023-02-10T01:46:25;30.33;;;14.63;;
60076;SDS011;45950;45.208;20.374;2023-02-10T01:48:51;32.27;;;15.63;;
60076;SDS011;45950;45.208;20.374;2023-02-10T01:51:18;32.73;;;16.30;;
60076;SDS011;45950;45.208;20.374;2023-02-10T01:56:48;32.43;;;14.70;;
60076;SDS011;45950;45.208;20.374;2023-02-10T01:59:15;42.63;;;20.03;;
60076;SDS011;45950;45.208;20.374;2023-02-10T02:01:43;57.33;;;26.53;;
60076;SDS011;45950;45.208;20.374;2023-02-10T02:04:10;40.10;;;18.67;;
60076;SDS011;45950;45.208;20.374;2023-02-10T02:06:36;39.10;;;16.37;;
60076;SDS011;45950;45.208;20.374;2023-02-10T02:09:03;33.90;;;16.00;;
60076;SDS011;45950;45.208;20.374;2023-02-10T02:11:31;35.23;;;16.17;;
60076;SDS011;45950;45.208;20.374;2023-02-10T02:14:04;33.53;;;14.87;;
60076;SDS011;45950;45.208;20.374;2023-02-10T02:16:40;33.50;;;15.03;;
60076;SDS011;45950;45.208;20.374;2023-02-10T02:19:12;40.00;;;18.87;;
60076;SDS011;45950;45.208;20.374;2023-02-10T02:22:05;37.33;;;17.50;;
60076;SDS011;45950;45.208;20.374;2023-02-10T02:30:11;33.30;;;16.90;;
60076;SDS011;45950;45.208;20.374;2023-02-10T02:32:42;37.92;;;19.00;;
60076;SDS011;45950;45.208;20.374;2023-02-10T02:35:11;35.17;;;16.93;;
60076;SDS011;45950;45.208;20.374;2023-02-10T02:37:38;26.90;;;14.50;;
60076;SDS011;45950;45.208;20.374;2023-02-10T02:40:07;27.27;;;14.80;;
60076;SDS011;45950;45.208;20.374;2023-02-10T02:42:34;31.77;;;14.47;;
60076;SDS011;45950;45.208;20.374;2023-02-10T02:45:00;26.00;;;12.90;;
60076;SDS011;45950;45.208;20.374;2023-02-10T02:47:35;25.83;;;12.27;;
60076;SDS011;45950;45.208;20.374;2023-02-10T02:50:09;27.40;;;12.37;;
60076;SDS011;45950;45.208;20.374;2023-02-10T02:52:42;29.67;;;12.77;;
60076;SDS011;45950;45.208;20.374;2023-02-10T02:55:12;29.13;;;13.17;;
60076;SDS011;45950;45.208;20.374;2023-02-10T02:57:41;34.17;;;14.93;;
60076;SDS011;45950;45.208;20.374;2023-02-10T03:00:11;31.80;;;14.60;;
60076;SDS011;45950;45.208;20.374;2023-02-10T03:02:38;26.23;;;12.67;;
60076;SDS011;45950;45.208;20.374;2023-02-10T03:05:08;33.20;;;13.90;;
60076;SDS011;45950;45.208;20.374;2023-02-10T03:07:34;27.53;;;13.43;;
60076;SDS011;45950;45.208;20.374;2023-02-10T03:10:01;26.17;;;12.53;;
60076;SDS011;45950;45.208;20.374;2023-02-10T03:12:27;26.00;;;12.43;;
60076;SDS011;45950;45.208;20.374;2023-02-10T03:14:54;27.93;;;12.13;;
60076;SDS011;45950;45.208;20.374;2023-02-10T03:17:26;26.43;;;12.13;;
60076;SDS011;45950;45.208;20.374;2023-02-10T03:19:53;22.60;;;10.93;;
60076;SDS011;45950;45.208;20.374;2023-02-10T03:22:21;25.77;;;13.47;;
60076;SDS011;45950;45.208;20.374;2023-02-10T03:24:47;26.17;;;12.57;;
60076;SDS011;45950;45.208;20.374;2023-02-10T03:27:13;26.50;;;13.17;;
60076;SDS011;45950;45.208;20.374;2023-02-10T03:29:40;31.83;;;15.67;;
60076;SDS011;45950;45.208;20.374;2023-02-10T03:32:07;31.40;;;15.47;;
60076;SDS011;45950;45.208;20.374;2023-02-10T03:34:33;34.10;;;15.87;;
60076;SDS011;45950;45.208;20.374;2023-02-10T03:37:00;37.67;;;18.90;;
60076;SDS011;45950;45.208;20.374;2023-02-10T03:39:27;34.73;;;17.77;;
60076;SDS011;45950;45.208;20.374;2023-02-10T03:41:54;36.73;;;16.83;;
60076;SDS011;45950;45.208;20.374;2023-02-10T03:47:11;33.57;;;15.40;;
60076;SDS011;45950;45.208;20.374;2023-02-10T03:49:38;29.27;;;14.30;;
60076;SDS011;45950;45.208;20.374;2023-02-10T03:52:04;25.77;;;13.40;;
60076;SDS011;45950;45.208;20.374;2023-02-10T03:54:32;30.33;;;14.73;;
60076;SDS011;45950;45.208;20.374;2023-02-10T03:56:59;28.50;;;14.90;;
60076;SDS011;45950;45.208;20.374;2023-02-10T03:59:25;30.50;;;14.97;;
60076;SDS011;45950;45.208;20.374;2023-02-10T04:01:52;33.77;;;15.63;;
60076;SDS011;45950;45.208;20.374;2023-02-10T04:04:18;34.90;;;17.53;;
60076;SDS011;45950;45.208;20.374;2023-02-10T04:06:45;33.30;;;18.07;;
60076;SDS011;45950;45.208;20.374;2023-02-10T04:09:11;39.63;;;19.10;;
60076;SDS011;45950;45.208;20.374;2023-02-10T04:11:39;40.23;;;18.23;;
60076;SDS011;45950;45.208;20.374;2023-02-10T04:14:07;42.97;;;22.00;;
60076;SDS011;45950;45.208;20.374;2023-02-10T04:16:34;40.63;;;20.10;;
60076;SDS011;45950;45.208;20.374;2023-02-10T04:19:00;36.10;;;17.47;;
60076;SDS011;45950;45.208;20.374;2023-02-10T04:24:16;36.90;;;18.40;;
60076;SDS011;45950;45.208;20.374;2023-02-10T04:26:44;36.07;;;18.63;;
60076;SDS011;45950;45.208;20.374;2023-02-10T04:29:10;37.23;;;18.10;;
60076;SDS011;45950;45.208;20.374;2023-02-10T04:31:37;42.80;;;20.27;;
60076;SDS011;45950;45.208;20.374;2023-02-10T04:34:03;41.33;;;20.57;;
60076;SDS011;45950;45.208;20.374;2023-02-10T04:36:30;43.53;;;20.53;;
60076;SDS011;45950;45.208;20.374;2023-02-10T04:38:56;42.87;;;20.97;;
60076;SDS011;45950;45.208;20.374;2023-02-10T04:41:22;41.27;;;20.27;;
60076;SDS011;45950;45.208;20.374;2023-02-10T04:46:53;52.20;;;24.07;;
60076;SDS011;45950;45.208;20.374;2023-02-10T04:49:19;49.80;;;24.93;;
60076;SDS011;45950;45.208;20.374;2023-02-10T04:51:46;48.07;;;23.90;;
60076;SDS011;45950;45.208;20.374;2023-02-10T04:57:06;48.83;;;21.13;;
60076;SDS011;45950;45.208;20.374;2023-02-10T04:59:33;35.97;;;18.03;;
60076;SDS011;45950;45.208;20.374;2023-02-10T05:02:01;36.80;;;17.53;;
60076;SDS011;45950;45.208;20.374;2023-02-10T05:04:27;36.33;;;17.80;;
60076;SDS011;45950;45.208;20.374;2023-02-10T05:06:54;33.90;;;17.13;;
60076;SDS011;45950;45.208;20.374;2023-02-10T05:12:25;34.60;;;15.83;;
60076;SDS011;45950;45.208;20.374;2023-02-10T05:14:52;34.20;;;15.40;;
60076;SDS011;45950;45.208;20.374;2023-02-10T05:17:20;34.50;;;14.67;;
60076;SDS011;45950;45.208;20.374;2023-02-10T05:19:46;34.57;;;14.90;;
60076;SDS011;45950;45.208;20.374;2023-02-10T05:22:13;32.03;;;14.63;;
60076;SDS011;45950;45.208;20.374;2023-02-10T05:24:39;39.93;;;18.73;;
60076;SDS011;45950;45.208;20.374;2023-02-10T05:27:06;35.40;;;17.07;;
60076;SDS011;45950;45.208;20.374;2023-02-10T05:29:33;46.47;;;20.23;;
60076;SDS011;45950;45.208;20.374;2023-02-10T05:31:59;45.20;;;21.50;;
60076;SDS011;45950;45.208;20.374;2023-02-10T05:34:27;94.20;;;38.00;;
60076;SDS011;45950;45.208;20.374;2023-02-10T05:36:53;45.93;;;21.40;;
60076;SDS011;45950;45.208;20.374;2023-02-10T05:39:20;39.37;;;19.13;;
60076;SDS011;45950;45.208;20.374;2023-02-10T05:41:49;37.30;;;19.00;;
60076;SDS011;45950;45.208;20.374;2023-02-10T05:47:08;37.90;;;18.43;;
60076;SDS011;45950;45.208;20.374;2023-02-10T05:49:36;47.50;;;19.20;;
60076;SDS011;45950;45.208;20.374;2023-02-10T05:52:02;43.53;;;20.30;;
60076;SDS011;45950;45.208;20.374;2023-02-10T05:54:29;34.67;;;17.03;;
60076;SDS011;45950;45.208;20.374;2023-02-10T05:56:56;37.07;;;19.23;;
60076;SDS011;45950;45.208;20.374;2023-02-10T05:59:24;74.27;;;31.53;;
60076;SDS011;45950;45.208;20.374;2023-02-10T06:01:51;69.73;;;36.67;;
60076;SDS011;45950;45.208;20.374;2023-02-10T06:04:17;109.57;;;58.87;;
60076;SDS011;45950;45.208;20.374;2023-02-10T06:06:45;106.50;;;45.00;;
60076;SDS011;45950;45.208;20.374;2023-02-10T06:12:05;50.03;;;23.00;;
60076;SDS011;45950;45.208;20.374;2023-02-10T06:14:32;52.80;;;24.83;;
60076;SDS011;45950;45.208;20.374;2023-02-10T06:16:58;53.97;;;23.73;;
60076;SDS011;45950;45.208;20.374;2023-02-10T06:19:25;59.83;;;25.90;;
60076;SDS011;45950;45.208;20.374;2023-02-10T06:24:55;60.83;;;26.87;;
60076;SDS011;45950;45.208;20.374;2023-02-10T06:27:21;52.60;;;25.17;;
60076;SDS011;45950;45.208;20.374;2023-02-10T06:29:48;54.37;;;21.17;;
60076;SDS011;45950;45.208;20.374;2023-02-10T06:32:14;41.67;;;20.17;;
60076;SDS011;45950;45.208;20.374;2023-02-10T06:34:41;47.73;;;22.47;;
60076;SDS011;45950;45.208;20.374;2023-02-10T06:37:08;52.53;;;22.43;;
60076;SDS011;45950;45.208;20.374;2023-02-10T06:39:34;58.13;;;26.50;;
60076;SDS011;45950;45.208;20.374;2023-02-10T06:42:02;54.27;;;24.00;;
60076;SDS011;45950;45.208;20.374;2023-02-10T06:44:29;60.73;;;25.73;;
60076;SDS011;45950;45.208;20.374;2023-02-10T06:46:56;54.87;;;24.37;;
60076;SDS011;45950;45.208;20.374;2023-02-10T06:49:23;54.67;;;23.60;;
60076;SDS011;45950;45.208;20.374;2023-02-10T06:51:49;48.10;;;23.70;;
60076;SDS011;45950;45.208;20.374;2023-02-10T06:54:16;42.63;;;20.17;;
60076;SDS011;45950;45.208;20.374;2023-02-10T06:56:42;48.90;;;21.87;;
60076;SDS011;45950;45.208;20.374;2023-02-10T06:59:13;43.77;;;21.37;;
60076;SDS011;45950;45.208;20.374;2023-02-10T07:01:40;48.23;;;22.70;;
60076;SDS011;45950;45.208;20.374;2023-02-10T07:04:06;64.63;;;30.77;;
60076;SDS011;45950;45.208;20.374;2023-02-10T07:09:21;61.00;;;28.33;;
60076;SDS011;45950;45.208;20.374;2023-02-10T07:11:48;54.40;;;26.50;;
60076;SDS011;45950;45.208;20.374;2023-02-10T07:14:16;52.70;;;26.13;;
60076;SDS011;45950;45.208;20.374;2023-02-10T07:16:42;40.00;;;22.33;;
60076;SDS011;45950;45.208;20.374;2023-02-10T07:19:09;43.23;;;21.27;;
60076;SDS011;45950;45.208;20.374;2023-02-10T07:21:35;43.80;;;22.90;;
60076;SDS011;45950;45.208;20.374;2023-02-10T07:24:03;47.10;;;21.80;;
60076;SDS011;45950;45.208;20.374;2023-02-10T07:26:29;37.33;;;20.03;;
60076;SDS011;45950;45.208;20.374;2023-02-10T07:28:56;42.47;;;22.07;;
60076;SDS011;45950;45.208;20.374;2023-02-10T07:31:24;44.87;;;21.77;;
60076;SDS011;45950;45.208;20.374;2023-02-10T07:33:50;43.47;;;21.67;;
60076;SDS011;45950;45.208;20.374;2023-02-10T07:36:17;59.23;;;25.90;;
60076;SDS011;45950;45.208;20.374;2023-02-10T07:38:43;45.90;;;22.37;;
60076;SDS011;45950;45.208;20.374;2023-02-10T07:41:10;44.17;;;21.60;;
60076;SDS011;45950;45.208;20.374;2023-02-10T07:43:36;40.67;;;18.50;;
60076;SDS011;45950;45.208;20.374;2023-02-10T07:46:03;44.23;;;19.60;;
60076;SDS011;45950;45.208;20.374;2023-02-10T07:48:30;39.60;;;19.93;;
60076;SDS011;45950;45.208;20.374;2023-02-10T07:50:57;35.70;;;19.20;;
60076;SDS011;45950;45.208;20.374;2023-02-10T07:53:23;35.80;;;18.33;;
60076;SDS011;45950;45.208;20.374;2023-02-10T07:55:50;44.30;;;23.43;;
60076;SDS011;45950;45.208;20.374;2023-02-10T07:58:23;39.93;;;18.77;;
60076;SDS011;45950;45.208;20.374;2023-02-10T08:00:49;33.73;;;17.13;;
60076;SDS011;45950;45.208;20.374;2023-02-10T08:03:15;47.20;;;22.63;;
60076;SDS011;45950;45.208;20.374;2023-02-10T08:08:30;40.43;;;19.57;;
60076;SDS011;45950;45.208;20.374;2023-02-10T08:10:56;41.53;;;19.67;;
60076;SDS011;45950;45.208;20.374;2023-02-10T08:13:28;48.00;;;23.20;;
60076;SDS011;45950;45.208;20.374;2023-02-10T08:15:55;51.33;;;22.97;;
60076;SDS011;45950;45.208;20.374;2023-02-10T08:18:21;39.50;;;19.27;;
60076;SDS011;45950;45.208;20.374;2023-02-10T08:20:47;44.23;;;22.97;;
60076;SDS011;45950;45.208;20.374;2023-02-10T08:23:15;33.67;;;17.63;;
60076;SDS011;45950;45.208;20.374;2023-02-10T08:25:43;36.17;;;17.10;;
60076;SDS011;45950;45.208;20.374;2023-02-10T08:28:10;39.97;;;18.27;;
60076;SDS011;45950;45.208;20.374;2023-02-10T08:33:39;37.73;;;18.10;;
60076;SDS011;45950;45.208;20.374;2023-02-10T08:36:07;48.90;;;21.60;;
60076;SDS011;45950;45.208;20.374;2023-02-10T08:38:52;42.97;;;21.23;;
60076;SDS011;45950;45.208;20.374;2023-02-10T08:41:20;45.87;;;19.33;;
60076;SDS011;45950;45.208;20.374;2023-02-10T08:43:47;34.67;;;17.90;;
60076;SDS011;45950;45.208;20.374;2023-02-10T08:46:13;40.53;;;19.93;;
60076;SDS011;45950;45.208;20.374;2023-02-10T08:48:40;43.67;;;20.73;;
60076;SDS011;45950;45.208;20.374;2023-02-10T08:51:07;38.20;;;18.50;;
60076;SDS011;45950;45.208;20.374;2023-02-10T08:53:33;33.47;;;17.50;;
60076;SDS011;45950;45.208;20.374;2023-02-10T08:56:03;39.30;;;17.67;;
60076;SDS011;45950;45.208;20.374;2023-02-10T08:58:33;35.77;;;16.20;;
60076;SDS011;45950;45.208;20.374;2023-02-10T09:00:59;37.23;;;18.47;;
60076;SDS011;45950;45.208;20.374;2023-02-10T09:03:26;42.50;;;20.47;;
60076;SDS011;45950;45.208;20.374;2023-02-10T09:08:56;30.43;;;14.57;;
60076;SDS011;45950;45.208;20.374;2023-02-10T09:11:23;26.60;;;14.93;;
60076;SDS011;45950;45.208;20.374;2023-02-10T09:13:51;29.97;;;14.20;;
60076;SDS011;45950;45.208;20.374;2023-02-10T09:16:18;32.10;;;15.10;;
60076;SDS011;45950;45.208;20.374;2023-02-10T09:18:45;23.67;;;12.37;;
60076;SDS011;45950;45.208;20.374;2023-02-10T09:21:11;24.23;;;12.70;;
60076;SDS011;45950;45.208;20.374;2023-02-10T09:23:44;26.47;;;14.03;;
60076;SDS011;45950;45.208;20.374;2023-02-10T09:26:10;23.80;;;12.90;;
60076;SDS011;45950;45.208;20.374;2023-02-10T09:28:37;24.23;;;12.23;;
60076;SDS011;45950;45.208;20.374;2023-02-10T09:31:05;30.43;;;15.17;;
60076;SDS011;45950;45.208;20.374;2023-02-10T09:33:32;33.27;;;16.13;;
60076;SDS011;45950;45.208;20.374;2023-02-10T09:36:04;34.53;;;17.00;;
60076;SDS011;45950;45.208;20.374;2023-02-10T09:38:31;30.27;;;15.00;;
60076;SDS011;45950;45.208;20.374;2023-02-10T09:41:00;35.40;;;17.70;;
60076;SDS011;45950;45.208;20.374;2023-02-10T09:43:44;25.20;;;14.20;;
60076;SDS011;45950;45.208;20.374;2023-02-10T09:46:16;37.15;;;16.55;;
60076;SDS011;45950;45.208;20.374;2023-02-10T09:48:50;31.58;;;17.08;;
60076;SDS011;45950;45.208;20.374;2023-02-10T09:54:22;28.53;;;15.27;;
60076;SDS011;45950;45.208;20.374;2023-02-10T09:56:48;24.80;;;14.30;;
60076;SDS011;45950;45.208;20.374;2023-02-10T09:59:16;33.90;;;16.43;;
60076;SDS011;45950;45.208;20.374;2023-02-10T10:01:49;29.60;;;15.87;;
60076;SDS011;45950;45.208;20.374;2023-02-10T10:04:17;29.93;;;14.60;;
60076;SDS011;45950;45.208;20.374;2023-02-10T10:09:50;29.17;;;16.27;;
60076;SDS011;45950;45.208;20.374;2023-02-10T10:12:17;26.83;;;14.47;;
60076;SDS011;45950;45.208;20.374;2023-02-10T10:14:45;20.00;;;11.13;;
60076;SDS011;45950;45.208;20.374;2023-02-10T10:17:23;47.53;;;24.50;;
60076;SDS011;45950;45.208;20.374;2023-02-10T10:19:55;22.93;;;12.73;;
60076;SDS011;45950;45.208;20.374;2023-02-10T10:22:27;20.97;;;13.03;;
60076;SDS011;45950;45.208;20.374;2023-02-10T10:27:44;35.70;;;18.87;;
60076;SDS011;45950;45.208;20.374;2023-02-10T10:30:14;23.42;;;12.82;;
60076;SDS011;45950;45.208;20.374;2023-02-10T10:32:44;57.67;;;25.55;;
60076;SDS011;45950;45.208;20.374;2023-02-10T10:35:11;31.45;;;16.63;;
60076;SDS011;45950;45.208;20.374;2023-02-10T10:37:39;21.33;;;11.65;;
60076;SDS011;45950;45.208;20.374;2023-02-10T10:40:06;20.95;;;11.10;;
60076;SDS011;45950;45.208;20.374;2023-02-10T10:42:36;29.25;;;16.02;;
60076;SDS011;45950;45.208;20.374;2023-02-10T10:45:06;18.90;;;10.57;;
60076;SDS011;45950;45.208;20.374;2023-02-10T10:47:36;16.10;;;9.57;;
60076;SDS011;45950;45.208;20.374;2023-02-10T10:50:10;17.60;;;10.07;;
60076;SDS011;45950;45.208;20.374;2023-02-10T10:52:39;19.02;;;10.98;;
60076;SDS011;45950;45.208;20.374;2023-02-10T10:55:08;115.55;;;45.10;;
60076;SDS011;45950;45.208;20.374;2023-02-10T10:57:36;24.20;;;13.60;;
60076;SDS011;45950;45.208;20.374;2023-02-10T11:00:06;21.70;;;12.13;;
60076;SDS011;45950;45.208;20.374;2023-02-10T11:02:39;17.88;;;10.13;;
60076;SDS011;45950;45.208;20.374;2023-02-10T11:05:10;26.13;;;13.95;;
60076;SDS011;45950;45.208;20.374;2023-02-10T11:07:37;28.65;;;15.23;;
60076;SDS011;45950;45.208;20.374;2023-02-10T11:10:06;20.95;;;10.98;;
60076;SDS011;45950;45.208;20.374;2023-02-10T11:12:33;21.90;;;13.68;;
60076;SDS011;45950;45.208;20.374;2023-02-10T11:15:01;20.58;;;12.32;;
60076;SDS011;45950;45.208;20.374;2023-02-10T11:17:30;20.67;;;12.13;;
60076;SDS011;45950;45.208;20.374;2023-02-10T11:20:00;18.38;;;10.60;;
60076;SDS011;45950;45.208;20.374;2023-02-10T11:22:28;19.00;;;11.90;;
60076;SDS011;45950;45.208;20.374;2023-02-10T11:24:54;18.67;;;10.65;;
60076;SDS011;45950;45.208;20.374;2023-02-10T11:27:21;22.20;;;12.82;;
60076;SDS011;45950;45.208;20.374;2023-02-10T11:32:49;19.15;;;12.40;;
60076;SDS011;45950;45.208;20.374;2023-02-10T11:35:15;18.55;;;11.05;;
60076;SDS011;45950;45.208;20.374;2023-02-10T11:37:44;20.75;;;12.73;;
60076;SDS011;45950;45.208;20.374;2023-02-10T11:40:17;20.95;;;12.43;;
60076;SDS011;45950;45.208;20.374;2023-02-10T11:42:45;20.85;;;10.93;;
60076;SDS011;45950;45.208;20.374;2023-02-10T11:45:15;22.08;;;13.35;;
60076;SDS011;45950;45.208;20.374;2023-02-10T11:47:42;20.48;;;11.90;;
60076;SDS011;45950;45.208;20.374;2023-02-10T11:50:18;24.42;;;13.93;;
60076;SDS011;45950;45.208;20.374;2023-02-10T11:52:46;20.25;;;11.93;;
60076;SDS011;45950;45.208;20.374;2023-02-10T11:55:13;20.20;;;12.48;;
60076;SDS011;45950;45.208;20.374;2023-02-10T11:57:43;19.48;;;10.95;;
60076;SDS011;45950;45.208;20.374;2023-02-10T12:03:42;20.80;;;13.15;;
60076;SDS011;45950;45.208;20.374;2023-02-10T12:06:12;18.77;;;10.75;;
60076;SDS011;45950;45.208;20.374;2023-02-10T12:08:45;24.70;;;13.48;;
60076;SDS011;45950;45.208;20.374;2023-02-10T12:11:15;20.20;;;11.95;;
60076;SDS011;45950;45.208;20.374;2023-02-10T12:13:44;20.38;;;12.38;;
60076;SDS011;45950;45.208;20.374;2023-02-10T12:16:15;22.92;;;13.07;;
60076;SDS011;45950;45.208;20.374;2023-02-10T12:18:47;26.52;;;14.52;;
60076;SDS011;45950;45.208;20.374;2023-02-10T12:24:13;31.58;;;17.98;;
60076;SDS011;45950;45.208;20.374;2023-02-10T12:26:55;27.58;;;15.32;;
60076;SDS011;45950;45.208;20.374;2023-02-10T12:29:28;18.75;;;10.68;;
60076;SDS011;45950;45.208;20.374;2023-02-10T12:31:58;24.98;;;13.95;;
60076;SDS011;45950;45.208;20.374;2023-02-10T12:34:32;20.95;;;11.48;;
60076;SDS011;45950;45.208;20.374;2023-02-10T12:37:06;22.90;;;13.82;;
60076;SDS011;45950;45.208;20.374;2023-02-10T12:39:39;20.42;;;11.25;;
60076;SDS011;45950;45.208;20.374;2023-02-10T12:42:13;18.55;;;10.10;;
60076;SDS011;45950;45.208;20.374;2023-02-10T12:44:45;20.52;;;12.55;;
60076;SDS011;45950;45.208;20.374;2023-02-10T12:47:16;20.42;;;11.25;;
60076;SDS011;45950;45.208;20.374;2023-02-10T12:49:49;21.05;;;11.95;;
60076;SDS011;45950;45.208;20.374;2023-02-10T12:52:18;19.67;;;13.18;;
60076;SDS011;45950;45.208;20.374;2023-02-10T12:54:48;24.13;;;13.38;;
60076;SDS011;45950;45.208;20.374;2023-02-10T12:57:18;21.88;;;13.13;;
60076;SDS011;45950;45.208;20.374;2023-02-10T12:59:48;20.77;;;11.73;;
60076;SDS011;45950;45.208;20.374;2023-02-10T13:02:16;19.13;;;10.75;;
60076;SDS011;45950;45.208;20.374;2023-02-10T13:04:45;25.17;;;14.10;;
60076;SDS011;45950;45.208;20.374;2023-02-10T13:07:15;21.23;;;10.73;;
60076;SDS011;45950;45.208;20.374;2023-02-10T13:09:43;78.32;;;37.42;;
60076;SDS011;45950;45.208;20.374;2023-02-10T13:12:15;19.40;;;11.88;;
60076;SDS011;45950;45.208;20.374;2023-02-10T13:14:44;30.42;;;17.60;;
60076;SDS011;45950;45.208;20.374;2023-02-10T13:17:11;22.05;;;13.10;;
60076;SDS011;45950;45.208;20.374;2023-02-10T13:19:39;18.02;;;10.93;;
60076;SDS011;45950;45.208;20.374;2023-02-10T13:22:10;21.80;;;11.80;;
60076;SDS011;45950;45.208;20.374;2023-02-10T13:24:40;17.60;;;10.40;;
60076;SDS011;45950;45.208;20.374;2023-02-10T13:27:29;41.72;;;24.92;;
60076;SDS011;45950;45.208;20.374;2023-02-10T13:30:02;42.47;;;21.50;;
60076;SDS011;45950;45.208;20.374;2023-02-10T13:35:17;39.63;;;21.02;;
60076;SDS011;45950;45.208;20.374;2023-02-10T13:37:46;71.45;;;29.50;;
60076;SDS011;45950;45.208;20.374;2023-02-10T13:40:17;85.95;;;33.88;;
60076;SDS011;45950;45.208;20.374;2023-02-10T13:42:50;98.90;;;40.90;;
60076;SDS011;45950;45.208;20.374;2023-02-10T13:45:18;53.58;;;23.73;;
60076;SDS011;45950;45.208;20.374;2023-02-10T13:47:47;38.28;;;20.73;;
60076;SDS011;45950;45.208;20.374;2023-02-10T13:50:19;68.72;;;34.85;;
60076;SDS011;45950;45.208;20.374;2023-02-10T13:52:51;38.28;;;21.50;;
60076;SDS011;45950;45.208;20.374;2023-02-10T13:55:26;29.35;;;18.10;;
60076;SDS011;45950;45.208;20.374;2023-02-10T13:57:55;23.05;;;13.77;;
60076;SDS011;45950;45.208;20.374;2023-02-10T14:00:22;21.88;;;14.18;;
60076;SDS011;45950;45.208;20.374;2023-02-10T14:05:50;21.00;;;12.45;;
60076;SDS011;45950;45.208;20.374;2023-02-10T14:08:26;18.83;;;11.07;;
60076;SDS011;45950;45.208;20.374;2023-02-10T14:10:55;22.23;;;12.52;;
60076;SDS011;45950;45.208;20.374;2023-02-10T14:13:24;18.63;;;11.85;;
60076;SDS011;45950;45.208;20.374;2023-02-10T14:15:56;20.05;;;12.43;;
60076;SDS011;45950;45.208;20.374;2023-02-10T14:18:23;22.20;;;12.27;;
60076;SDS011;45950;45.208;20.374;2023-02-10T14:20:54;18.23;;;10.40;;
60076;SDS011;45950;45.208;20.374;2023-02-10T14:23:21;19.35;;;11.13;;
60076;SDS011;45950;45.208;20.374;2023-02-10T14:25:48;15.25;;;9.95;;
60076;SDS011;45950;45.208;20.374;2023-02-10T14:28:33;14.88;;;9.30;;
60076;SDS011;45950;45.208;20.374;2023-02-10T14:31:01;13.07;;;9.32;;
60076;SDS011;45950;45.208;20.374;2023-02-10T14:33:29;12.30;;;8.15;;
60076;SDS011;45950;45.208;20.374;2023-02-10T14:35:58;14.65;;;7.65;;
60076;SDS011;45950;45.208;20.374;2023-02-10T14:38:25;15.10;;;8.98;;
60076;SDS011;45950;45.208;20.374;2023-02-10T14:40:52;11.48;;;7.63;;
60076;SDS011;45950;45.208;20.374;2023-02-10T14:43:20;15.18;;;9.45;;
60076;SDS011;45950;45.208;20.374;2023-02-10T14:45:49;65.78;;;12.02;;
60076;SDS011;45950;45.208;20.374;2023-02-10T14:48:15;15.93;;;8.95;;
60076;SDS011;45950;45.208;20.374;2023-02-10T14:50:55;18.30;;;10.40;;
60076;SDS011;45950;45.208;20.374;2023-02-10T14:56:25;15.52;;;9.25;;
60076;SDS011;45950;45.208;20.374;2023-02-10T14:58:52;13.13;;;8.35;;
60076;SDS011;45950;45.208;20.374;2023-02-10T15:01:22;27.15;;;15.98;;
60076;SDS011;45950;45.208;20.374;2023-02-10T15:06:52;14.65;;;9.07;;
60076;SDS011;45950;45.208;20.374;2023-02-10T15:09:20;37.47;;;18.90;;
60076;SDS011;45950;45.208;20.374;2023-02-10T15:11:49;13.40;;;8.30;;
60076;SDS011;45950;45.208;20.374;2023-02-10T15:14:36;19.17;;;10.52;;
60076;SDS011;45950;45.208;20.374;2023-02-10T15:17:08;24.92;;;12.57;;
60076;SDS011;45950;45.208;20.374;2023-02-10T15:19:37;20.90;;;13.13;;
60076;SDS011;45950;45.208;20.374;2023-02-10T15:22:28;19.30;;;11.27;;
60076;SDS011;45950;45.208;20.374;2023-02-10T15:24:56;30.58;;;17.10;;
60076;SDS011;45950;45.208;20.374;2023-02-10T15:27:23;29.80;;;14.90;;
60076;SDS011;45950;45.208;20.374;2023-02-10T15:29:49;31.58;;;16.42;;
60076;SDS011;45950;45.208;20.374;2023-02-10T15:32:17;26.52;;;14.63;;
60076;SDS011;45950;45.208;20.374;2023-02-10T15:34:45;26.75;;;14.38;;
60076;SDS011;45950;45.208;20.374;2023-02-10T15:37:13;28.00;;;14.85;;